Time;durP1;ratioP1;P1;durP2;ratioP2;P2;SDS_P1;SDS_P2;PMS_P1;PMS_P2;Temp;Humidity;BMP_temperature;BMP_pressure;BME280_temperature;BME280_humidity;BME280_pressure;Samples;Min_cycle;Max_cycle;Signal;HPM_P1;HPM_P2
2021/12/12 00:00:44;;;;;;;26.20;10.25;;;;;;;;;;5067456;28;20051;-56
2021/12/12 00:03:56;;;;;;;16.50;7.40;;;;;;;;;;5067983;28;20031;-57
2021/12/12 00:06:05;;;;;;;14.43;6.68;;;;;;;;;;5062378;28;20042;-57
2021/12/12 00:08:31;;;;;;;12.68;6.40;;;;;;;;;;5068627;28;20029;-57
2021/12/12 00:11:00;;;;;;;10.23;5.38;;;;;;;;;;5067114;28;20028;-57
2021/12/12 00:13:28;;;;;;;10.15;5.18;;;;;;;;;;5069099;28;20158;-55
2021/12/12 00:15:54;;;;;;;10.00;5.55;;;;;;;;;;5068014;28;20104;-56
2021/12/12 00:18:21;;;;;;;7.53;4.32;;;;;;;;;;5067640;28;20570;-57
2021/12/12 00:20:47;;;;;;;6.78;4.93;;;;;;;;;;5066848;28;20035;-57
2021/12/12 00:23:14;;;;;;;9.60;5.18;;;;;;;;;;5067683;28;20021;-57
2021/12/12 00:25:42;;;;;;;8.73;5.38;;;;;;;;;;5067986;28;20298;-57
2021/12/12 00:28:09;;;;;;;11.48;5.63;;;;;;;;;;5065211;28;20084;-56
2021/12/12 00:30:35;;;;;;;8.10;5.38;;;;;;;;;;5067305;28;20040;-57
2021/12/12 00:33:02;;;;;;;10.07;5.85;;;;;;;;;;5067767;28;20028;-57
2021/12/12 00:35:29;;;;;;;8.18;4.72;;;;;;;;;;5067525;28;20461;-57
2021/12/12 00:38:04;;;;;;;9.25;5.32;;;;;;;;;;5067468;28;20117;-56
2021/12/12 00:40:35;;;;;;;8.30;5.28;;;;;;;;;;5067573;28;20032;-57
2021/12/12 00:43:04;;;;;;;11.43;6.65;;;;;;;;;;5067795;28;20070;-57
2021/12/12 00:45:30;;;;;;;14.98;7.45;;;;;;;;;;5067698;28;20032;-56
2021/12/12 00:47:58;;;;;;;15.35;7.40;;;;;;;;;;5067461;28;20376;-56
2021/12/12 00:50:29;;;;;;;20.38;8.45;;;;;;;;;;5065961;28;20039;-56
2021/12/12 00:52:57;;;;;;;15.52;7.28;;;;;;;;;;5067426;28;20100;-56
2021/12/12 00:55:23;;;;;;;19.65;8.30;;;;;;;;;;5049629;28;20070;-56
2021/12/12 00:57:53;;;;;;;17.75;8.00;;;;;;;;;;5066121;28;20035;-56
2021/12/12 01:00:21;;;;;;;14.60;7.88;;;;;;;;;;5067039;28;20090;-57
2021/12/12 01:02:47;;;;;;;13.90;7.05;;;;;;;;;;5067149;28;20635;-57
2021/12/12 01:05:14;;;;;;;9.63;5.88;;;;;;;;;;5066845;28;20099;-57
2021/12/12 01:07:42;;;;;;;11.18;6.00;;;;;;;;;;5065396;28;20116;-56
2021/12/12 01:10:14;;;;;;;19.80;9.38;;;;;;;;;;5066919;28;20570;-57
2021/12/12 01:12:40;;;;;;;24.27;11.05;;;;;;;;;;5067243;28;20028;-56
2021/12/12 01:15:10;;;;;;;31.13;13.23;;;;;;;;;;5066382;28;20032;-57
2021/12/12 01:17:41;;;;;;;30.20;12.70;;;;;;;;;;5065347;28;20024;-56
2021/12/12 01:20:16;;;;;;;26.05;11.68;;;;;;;;;;5066549;28;20078;-57
2021/12/12 01:22:43;;;;;;;20.25;9.57;;;;;;;;;;5066223;28;20025;-56
2021/12/12 01:25:17;;;;;;;16.90;8.73;;;;;;;;;;5066820;28;20104;-56
2021/12/12 01:27:43;;;;;;;17.83;8.70;;;;;;;;;;5065839;28;20446;-57
2021/12/12 01:30:10;;;;;;;18.42;8.38;;;;;;;;;;5066438;28;20422;-57
2021/12/12 01:32:37;;;;;;;29.45;11.30;;;;;;;;;;5066609;28;20066;-56
2021/12/12 01:35:13;;;;;;;27.02;9.90;;;;;;;;;;5066678;28;20403;-57
2021/12/12 01:37:44;;;;;;;33.72;11.35;;;;;;;;;;5065961;28;20407;-57
2021/12/12 01:40:19;;;;;;;28.88;10.35;;;;;;;;;;5066169;28;20052;-57
2021/12/12 01:42:47;;;;;;;34.05;14.40;;;;;;;;;;5066471;28;20039;-57
2021/12/12 01:45:24;;;;;;;26.27;11.88;;;;;;;;;;5065450;28;20027;-57
2021/12/12 01:47:52;;;;;;;21.48;9.98;;;;;;;;;;5065290;28;20464;-57
2021/12/12 01:50:23;;;;;;;18.90;8.57;;;;;;;;;;5065987;28;20041;-57
2021/12/12 01:52:51;;;;;;;15.63;7.15;;;;;;;;;;5066557;28;20685;-57
2021/12/12 01:55:40;;;;;;;13.55;7.28;;;;;;;;;;5066308;28;20024;-57
2021/12/12 01:58:12;;;;;;;12.82;6.85;;;;;;;;;;5049605;28;20072;-57
2021/12/12 02:00:42;;;;;;;9.60;5.47;;;;;;;;;;5065289;28;20029;-57
2021/12/12 02:03:10;;;;;;;8.70;5.45;;;;;;;;;;5066155;28;20082;-57
2021/12/12 02:05:39;;;;;;;11.30;5.45;;;;;;;;;;5064779;28;20028;-57
2021/12/12 02:08:10;;;;;;;8.23;5.05;;;;;;;;;;5065746;28;20551;-56
2021/12/12 02:10:44;;;;;;;7.97;4.90;;;;;;;;;;5047015;28;20454;-57
2021/12/12 02:13:12;;;;;;;9.07;5.43;;;;;;;;;;5064912;28;20044;-56
2021/12/12 02:15:39;;;;;;;7.07;4.68;;;;;;;;;;5063836;28;20119;-57
2021/12/12 02:18:10;;;;;;;5.75;3.95;;;;;;;;;;5063815;28;20539;-57
2021/12/12 02:20:43;;;;;;;9.63;5.07;;;;;;;;;;5065725;28;20029;-57
2021/12/12 02:23:23;;;;;;;6.55;4.82;;;;;;;;;;5065478;28;20559;-57
2021/12/12 02:37:10;;;;;;;12.35;7.43;;;;;;;;;;5022234;28;20052;-57
2021/12/12 02:39:38;;;;;;;10.95;7.05;;;;;;;;;;5030414;28;20113;-57
2021/12/12 02:42:06;;;;;;;10.02;6.68;;;;;;;;;;5065567;28;20147;-57
2021/12/12 02:44:35;;;;;;;9.32;5.95;;;;;;;;;;5064679;28;20481;-57
2021/12/12 02:47:09;;;;;;;7.78;5.07;;;;;;;;;;5065351;28;20025;-56
2021/12/12 02:52:18;;;;;;;10.00;5.55;;;;;;;;;;5064102;28;20024;-56
2021/12/12 02:54:45;;;;;;;12.50;6.57;;;;;;;;;;5063631;28;20028;-57
2021/12/12 02:57:13;;;;;;;28.10;13.50;;;;;;;;;;5064934;28;20026;-57
2021/12/12 02:59:42;;;;;;;46.35;20.60;;;;;;;;;;5064943;28;20031;-55
2021/12/12 03:02:10;;;;;;;39.67;18.90;;;;;;;;;;5064610;28;20392;-57
2021/12/12 03:04:36;;;;;;;34.65;17.33;;;;;;;;;;5064273;28;20027;-57
2021/12/12 03:07:05;;;;;;;30.90;15.60;;;;;;;;;;5064267;28;20676;-56
2021/12/12 03:09:36;;;;;;;26.48;12.63;;;;;;;;;;5064811;28;20094;-57
2021/12/12 03:12:05;;;;;;;23.23;11.23;;;;;;;;;;5065146;28;20020;-57
2021/12/12 03:14:34;;;;;;;20.90;10.73;;;;;;;;;;5063620;28;20033;-56
2021/12/12 03:17:08;;;;;;;16.83;9.65;;;;;;;;;;5065455;28;20327;-57
2021/12/12 03:19:34;;;;;;;17.35;8.15;;;;;;;;;;5065074;28;20017;-56
2021/12/12 03:22:01;;;;;;;14.23;7.70;;;;;;;;;;5064282;28;20411;-56
2021/12/12 03:24:28;;;;;;;11.57;6.45;;;;;;;;;;5063808;28;20033;-57
2021/12/12 03:26:58;;;;;;;12.55;6.15;;;;;;;;;;5064692;28;20214;-57
2021/12/12 03:29:26;;;;;;;10.40;5.63;;;;;;;;;;5064991;28;20032;-57
2021/12/12 03:31:57;;;;;;;10.80;5.80;;;;;;;;;;5064794;28;20036;-56
2021/12/12 03:34:24;;;;;;;8.50;5.35;;;;;;;;;;5064082;28;20024;-57
2021/12/12 03:36:51;;;;;;;7.53;5.18;;;;;;;;;;5064672;28;20434;-57
2021/12/12 03:39:20;;;;;;;6.07;4.22;;;;;;;;;;5064236;28;20044;-56
2021/12/12 03:41:46;;;;;;;10.52;5.65;;;;;;;;;;5064490;28;20061;-56
2021/12/12 03:44:14;;;;;;;8.05;4.90;;;;;;;;;;5063675;28;20529;-56
2021/12/12 03:46:41;;;;;;;9.77;5.93;;;;;;;;;;5064640;28;20122;-55
2021/12/12 03:49:09;;;;;;;14.30;8.60;;;;;;;;;;5064216;28;20027;-56
2021/12/12 03:51:36;;;;;;;12.20;7.15;;;;;;;;;;5064394;28;20029;-56
2021/12/12 03:54:04;;;;;;;10.93;6.68;;;;;;;;;;5063248;28;20025;-57
2021/12/12 03:56:32;;;;;;;10.38;5.95;;;;;;;;;;5063899;28;20365;-56
2021/12/12 03:58:58;;;;;;;7.68;5.35;;;;;;;;;;5063674;28;20024;-57
2021/12/12 04:01:28;;;;;;;10.23;5.63;;;;;;;;;;5063557;28;20033;-56
2021/12/12 04:03:55;;;;;;;10.82;5.82;;;;;;;;;;5064834;28;20017;-56
2021/12/12 04:06:23;;;;;;;7.70;4.80;;;;;;;;;;5064146;28;20028;-57
2021/12/12 04:08:51;;;;;;;8.95;5.68;;;;;;;;;;5063370;28;20033;-56
2021/12/12 04:11:25;;;;;;;11.43;5.65;;;;;;;;;;5063747;28;20423;-56
2021/12/12 04:13:54;;;;;;;10.50;5.80;;;;;;;;;;5063750;28;20320;-56
2021/12/12 04:16:24;;;;;;;11.73;5.70;;;;;;;;;;5062530;28;20068;-55
2021/12/12 04:18:50;;;;;;;9.32;5.93;;;;;;;;;;5064241;28;20100;-57
2021/12/12 04:21:18;;;;;;;7.90;5.32;;;;;;;;;;5063715;28;20462;-56
2021/12/12 04:23:44;;;;;;;12.45;5.95;;;;;;;;;;5064178;28;20514;-57
2021/12/12 04:26:13;;;;;;;8.13;4.97;;;;;;;;;;5063001;28;20021;-56
2021/12/12 04:28:40;;;;;;;7.82;5.15;;;;;;;;;;5063687;28;20020;-56
2021/12/12 04:31:06;;;;;;;7.55;4.70;;;;;;;;;;5063585;28;20086;-57
2021/12/12 04:33:33;;;;;;;6.43;4.18;;;;;;;;;;5064060;28;20036;-57
2021/12/12 04:35:59;;;;;;;8.65;4.78;;;;;;;;;;5063182;28;20024;-56
2021/12/12 04:38:25;;;;;;;7.60;4.38;;;;;;;;;;5066314;28;20115;-56
2021/12/12 04:40:51;;;;;;;6.38;4.63;;;;;;;;;;5067603;28;20567;-57
2021/12/12 04:43:17;;;;;;;6.90;4.55;;;;;;;;;;5067574;28;20025;-56
2021/12/12 04:45:57;;;;;;;6.00;3.78;;;;;;;;;;5065713;28;20032;-56
2021/12/12 04:51:17;;;;;;;7.78;4.38;;;;;;;;;;5067388;28;20094;-57
2021/12/12 04:53:48;;;;;;;8.55;4.60;;;;;;;;;;5067773;28;20024;-56
2021/12/12 04:56:26;;;;;;;8.60;4.30;;;;;;;;;;5066730;28;20055;-57
2021/12/12 04:59:00;;;;;;;9.05;4.85;;;;;;;;;;5068061;28;20170;-56
2021/12/12 05:01:31;;;;;;;6.28;4.60;;;;;;;;;;5067843;28;20130;-57
2021/12/12 05:03:59;;;;;;;9.73;5.13;;;;;;;;;;5067598;28;20016;-56
2021/12/12 05:06:45;;;;;;;6.85;4.82;;;;;;;;;;5066831;28;20609;-56
2021/12/12 05:09:11;;;;;;;6.57;4.75;;;;;;;;;;5067075;28;20431;-57
2021/12/12 05:11:47;;;;;;;10.35;5.78;;;;;;;;;;5067177;28;20028;-57
2021/12/12 05:14:21;;;;;;;9.82;5.40;;;;;;;;;;5066414;28;20024;-57
2021/12/12 05:16:51;;;;;;;7.63;5.13;;;;;;;;;;5066554;28;20128;-57
2021/12/12 05:19:22;;;;;;;9.80;5.13;;;;;;;;;;5066394;28;20032;-56
2021/12/12 05:21:50;;;;;;;7.93;5.20;;;;;;;;;;5066939;28;20033;-57
2021/12/12 05:24:17;;;;;;;8.93;5.20;;;;;;;;;;5065723;28;20029;-56
2021/12/12 05:26:46;;;;;;;9.15;5.63;;;;;;;;;;5066242;28;20094;-57
2021/12/12 05:29:15;;;;;;;8.30;5.63;;;;;;;;;;5066657;28;20490;-56
2021/12/12 05:31:47;;;;;;;10.50;5.60;;;;;;;;;;5066854;28;20487;-57
2021/12/12 05:34:14;;;;;;;11.32;6.18;;;;;;;;;;5065881;28;20392;-57
2021/12/12 05:36:41;;;;;;;9.10;5.75;;;;;;;;;;5066243;28;20070;-57
2021/12/12 05:39:07;;;;;;;8.52;5.40;;;;;;;;;;5066392;28;20101;-57
2021/12/12 05:41:34;;;;;;;10.68;6.10;;;;;;;;;;5066696;28;20036;-56
2021/12/12 05:44:00;;;;;;;9.60;5.78;;;;;;;;;;5066578;28;20299;-57
2021/12/12 05:46:26;;;;;;;9.40;6.05;;;;;;;;;;5064729;28;20036;-56
2021/12/12 05:48:53;;;;;;;9.25;5.47;;;;;;;;;;5066313;28;20139;-57
2021/12/12 05:51:19;;;;;;;10.30;5.82;;;;;;;;;;5065969;28;20021;-56
2021/12/12 05:53:49;;;;;;;7.32;5.25;;;;;;;;;;5065793;28;20028;-56
2021/12/12 05:56:15;;;;;;;8.23;5.90;;;;;;;;;;5065305;28;20070;-56
2021/12/12 05:58:42;;;;;;;8.75;5.75;;;;;;;;;;5066197;28;20188;-57
2021/12/12 06:01:10;;;;;;;9.40;5.85;;;;;;;;;;5065926;28;20035;-57
2021/12/12 06:03:39;;;;;;;9.43;6.00;;;;;;;;;;5065748;28;20094;-57
2021/12/12 06:06:18;;;;;;;7.55;4.93;;;;;;;;;;5065736;28;20530;-57
2021/12/12 06:08:46;;;;;;;8.77;5.20;;;;;;;;;;5066080;28;20115;-57
2021/12/12 06:11:14;;;;;;;7.15;4.95;;;;;;;;;;5064942;28;20029;-57
2021/12/12 06:13:41;;;;;;;7.05;5.03;;;;;;;;;;5065361;28;20032;-57
2021/12/12 06:16:09;;;;;;;9.40;5.22;;;;;;;;;;5065351;28;20030;-57
2021/12/12 06:18:35;;;;;;;8.70;5.93;;;;;;;;;;5065869;28;20506;-56
2021/12/12 06:21:02;;;;;;;7.15;5.13;;;;;;;;;;5065661;28;20560;-57
2021/12/12 06:23:29;;;;;;;7.53;5.15;;;;;;;;;;5065184;28;20111;-57
2021/12/12 06:25:56;;;;;;;6.47;4.95;;;;;;;;;;5066500;28;20056;-57
2021/12/12 06:28:22;;;;;;;6.90;4.70;;;;;;;;;;5066427;28;20063;-57
2021/12/12 06:30:49;;;;;;;6.20;4.32;;;;;;;;;;5066212;28;20492;-57
2021/12/12 06:33:15;;;;;;;8.23;5.38;;;;;;;;;;5064357;28;20048;-57
2021/12/12 06:35:41;;;;;;;6.88;4.85;;;;;;;;;;5065753;28;20028;-57
2021/12/12 06:38:08;;;;;;;7.78;5.25;;;;;;;;;;5065318;28;20097;-57
2021/12/12 06:40:35;;;;;;;7.30;5.13;;;;;;;;;;5064190;28;20391;-57
2021/12/12 06:43:04;;;;;;;7.70;4.97;;;;;;;;;;5064861;28;20429;-57
2021/12/12 06:45:30;;;;;;;5.90;4.28;;;;;;;;;;5065060;28;20419;-57
2021/12/12 06:47:57;;;;;;;7.75;5.07;;;;;;;;;;5065785;28;20025;-56
2021/12/12 06:50:25;;;;;;;7.25;4.68;;;;;;;;;;5065783;28;20027;-57
2021/12/12 06:52:51;;;;;;;6.55;4.40;;;;;;;;;;5065431;28;20040;-57
2021/12/12 06:55:19;;;;;;;6.65;4.82;;;;;;;;;;5065853;28;20039;-57
2021/12/12 06:57:45;;;;;;;7.95;5.13;;;;;;;;;;5064642;28;20024;-56
2021/12/12 07:00:12;;;;;;;7.13;4.65;;;;;;;;;;5065318;28;20023;-57
2021/12/12 07:02:40;;;;;;;7.00;4.38;;;;;;;;;;5063372;28;20029;-57
2021/12/12 07:05:07;;;;;;;7.95;5.00;;;;;;;;;;5065359;28;20025;-57
2021/12/12 07:07:34;;;;;;;6.88;4.63;;;;;;;;;;5065533;28;20028;-56
2021/12/12 07:10:00;;;;;;;6.70;4.75;;;;;;;;;;5065152;28;20404;-58
2021/12/12 07:12:27;;;;;;;8.05;5.10;;;;;;;;;;5064995;28;20129;-57
2021/12/12 07:14:54;;;;;;;8.80;5.35;;;;;;;;;;5066930;28;20396;-56
2021/12/12 07:17:21;;;;;;;7.78;4.97;;;;;;;;;;5077318;28;20032;-56
2021/12/12 07:19:47;;;;;;;7.45;5.38;;;;;;;;;;5075538;28;20056;-56
2021/12/12 07:22:14;;;;;;;8.68;5.43;;;;;;;;;;5065397;28;20411;-57
2021/12/12 07:24:42;;;;;;;9.02;5.90;;;;;;;;;;5066431;28;20012;-57
2021/12/12 07:27:08;;;;;;;8.40;5.68;;;;;;;;;;5065892;28;20482;-57
2021/12/12 07:29:34;;;;;;;8.20;5.53;;;;;;;;;;5066228;28;20040;-57
2021/12/12 07:32:01;;;;;;;8.80;5.10;;;;;;;;;;5066020;28;20024;-57
2021/12/12 07:34:28;;;;;;;11.48;6.32;;;;;;;;;;5064599;28;20035;-57
2021/12/12 07:36:56;;;;;;;9.68;5.85;;;;;;;;;;5066241;28;20041;-57
2021/12/12 07:39:23;;;;;;;11.10;6.45;;;;;;;;;;5048512;28;20384;-57
2021/12/12 07:41:51;;;;;;;7.53;5.07;;;;;;;;;;5064086;28;20086;-57
2021/12/12 07:44:22;;;;;;;8.10;5.85;;;;;;;;;;5065905;28;20017;-57
2021/12/12 07:46:50;;;;;;;8.45;5.57;;;;;;;;;;5066106;28;20028;-57
2021/12/12 07:49:19;;;;;;;8.40;5.40;;;;;;;;;;5065411;28;20029;-57
2021/12/12 07:51:45;;;;;;;8.88;5.78;;;;;;;;;;5065070;28;20032;-57
2021/12/12 07:54:11;;;;;;;10.10;6.25;;;;;;;;;;5065896;28;20029;-57
2021/12/12 07:56:39;;;;;;;12.07;7.03;;;;;;;;;;5066301;28;20392;-57
2021/12/12 07:59:06;;;;;;;13.90;7.72;;;;;;;;;;5048330;28;20017;-57
2021/12/12 08:01:33;;;;;;;13.45;7.85;;;;;;;;;;5057045;28;20051;-57
2021/12/12 08:03:59;;;;;;;12.10;7.68;;;;;;;;;;5052374;28;20017;-57
2021/12/12 08:06:25;;;;;;;13.25;7.38;;;;;;;;;;5066090;28;20037;-56
2021/12/12 08:08:52;;;;;;;14.43;7.90;;;;;;;;;;5065991;28;20500;-56
2021/12/12 08:11:23;;;;;;;12.40;8.27;;;;;;;;;;5064195;28;20531;-57
2021/12/12 08:13:50;;;;;;;13.63;8.32;;;;;;;;;;5069073;28;20024;-57
2021/12/12 08:16:16;;;;;;;14.75;9.23;;;;;;;;;;5069427;28;20055;-57
2021/12/12 08:18:44;;;;;;;13.18;7.72;;;;;;;;;;5071732;28;20056;-57
2021/12/12 08:21:10;;;;;;;13.93;8.32;;;;;;;;;;5065672;28;20039;-57
2021/12/12 08:23:37;;;;;;;10.50;7.00;;;;;;;;;;5067537;28;20044;-57
2021/12/12 08:26:04;;;;;;;11.85;7.50;;;;;;;;;;5068486;28;20056;-57
2021/12/12 08:28:30;;;;;;;10.63;6.68;;;;;;;;;;5066583;28;20454;-57
2021/12/12 08:30:57;;;;;;;12.32;7.93;;;;;;;;;;5069508;28;20047;-56
2021/12/12 08:33:24;;;;;;;11.82;7.35;;;;;;;;;;5067097;28;20031;-56
2021/12/12 08:35:51;;;;;;;11.95;7.85;;;;;;;;;;5069717;28;20089;-57
2021/12/12 08:38:18;;;;;;;11.77;7.35;;;;;;;;;;5066715;28;20035;-58
2021/12/12 08:40:50;;;;;;;11.38;6.60;;;;;;;;;;5067915;28;20025;-57
2021/12/12 08:43:21;;;;;;;10.60;6.88;;;;;;;;;;5069043;28;20028;-57
2021/12/12 08:45:57;;;;;;;10.88;6.68;;;;;;;;;;5068839;28;20028;-56
2021/12/12 08:48:24;;;;;;;11.15;7.07;;;;;;;;;;5068928;28;20104;-56
2021/12/12 08:50:54;;;;;;;12.48;7.97;;;;;;;;;;5062891;28;20032;-56
2021/12/12 08:53:21;;;;;;;15.77;9.43;;;;;;;;;;5057388;28;20124;-57
2021/12/12 08:55:49;;;;;;;18.00;10.02;;;;;;;;;;5068235;28;20416;-57
2021/12/12 08:58:18;;;;;;;16.92;9.43;;;;;;;;;;5066475;28;20107;-57
2021/12/12 09:00:47;;;;;;;16.48;10.02;;;;;;;;;;5068001;28;20458;-57
2021/12/12 09:03:16;;;;;;;16.08;10.07;;;;;;;;;;5067519;28;20561;-57
2021/12/12 09:05:42;;;;;;;18.10;11.15;;;;;;;;;;5068225;28;20036;-57
2021/12/12 09:08:13;;;;;;;16.13;9.68;;;;;;;;;;5068531;28;20020;-57
2021/12/12 09:10:46;;;;;;;15.02;9.88;;;;;;;;;;5068327;28;20452;-57
2021/12/12 09:13:12;;;;;;;18.10;10.35;;;;;;;;;;5067781;28;20515;-57
2021/12/12 09:15:53;;;;;;;16.30;9.98;;;;;;;;;;5066942;28;20032;-57
2021/12/12 09:18:20;;;;;;;16.38;9.95;;;;;;;;;;5068508;28;20053;-58
2021/12/12 09:20:53;;;;;;;17.58;9.77;;;;;;;;;;5067955;28;20033;-58
2021/12/12 09:23:32;;;;;;;17.00;9.57;;;;;;;;;;5066142;28;20055;-57
2021/12/12 09:26:04;;;;;;;20.65;11.48;;;;;;;;;;5062738;28;20104;-58
2021/12/12 09:28:52;;;;;;;15.63;9.60;;;;;;;;;;5066456;28;20033;-58
2021/12/12 09:31:22;;;;;;;14.82;9.30;;;;;;;;;;5066795;28;20500;-56
2021/12/12 09:33:50;;;;;;;16.45;9.18;;;;;;;;;;5066821;28;20032;-57
2021/12/12 09:36:18;;;;;;;15.57;9.85;;;;;;;;;;5067604;28;20033;-57
2021/12/12 09:39:00;;;;;;;19.77;11.05;;;;;;;;;;5068030;28;20035;-57
2021/12/12 09:41:42;;;;;;;18.77;10.60;;;;;;;;;;5064879;28;20051;-57
2021/12/12 09:44:09;;;;;;;18.17;10.38;;;;;;;;;;5049353;28;20498;-57
2021/12/12 09:47:11;;;;;;;19.05;10.45;;;;;;;;;;5064894;28;20029;-57
2021/12/12 09:52:57;;;;;;;17.35;9.95;;;;;;;;;;5068821;28;20097;-58
2021/12/12 09:55:53;;;;;;;16.08;9.95;;;;;;;;;;5068839;28;20032;-57
2021/12/12 09:58:37;;;;;;;15.30;9.57;;;;;;;;;;5013827;28;20056;-57
2021/12/12 10:01:12;;;;;;;15.48;9.90;;;;;;;;;;5065987;28;20029;-57
2021/12/12 10:03:51;;;;;;;15.55;9.73;;;;;;;;;;5083330;28;20521;-58
2021/12/12 10:06:36;;;;;;;17.67;10.75;;;;;;;;;;5067021;28;20108;-57
2021/12/12 10:09:14;;;;;;;16.40;10.27;;;;;;;;;;5067340;28;20072;-58
2021/12/12 10:12:02;;;;;;;17.20;10.68;;;;;;;;;;5066940;28;20020;-57
2021/12/12 10:14:28;;;;;;;17.27;10.40;;;;;;;;;;5066348;28;20024;-58
2021/12/12 10:16:58;;;;;;;17.30;9.95;;;;;;;;;;5066653;28;20036;-57
2021/12/12 10:19:30;;;;;;;17.02;9.93;;;;;;;;;;5050389;28;20048;-57
2021/12/12 10:22:02;;;;;;;14.65;8.57;;;;;;;;;;5048051;28;20025;-57
2021/12/12 10:24:28;;;;;;;16.20;9.35;;;;;;;;;;5048175;28;20040;-57
2021/12/12 10:27:12;;;;;;;15.07;8.35;;;;;;;;;;5055249;28;20020;-57
2021/12/12 10:29:38;;;;;;;;;;;;;;;;;;5067752;28;20059;-55
2021/12/12 10:32:10;;;;;;;13.40;8.70;;;;;;;;;;5064182;28;19984;-56
2021/12/12 10:34:43;;;;;;;13.65;7.90;;;;;;;;;;5067980;28;20533;-56
2021/12/12 10:37:18;;;;;;;10.93;7.63;;;;;;;;;;5067653;28;20025;-56
2021/12/12 10:39:47;;;;;;;13.30;7.88;;;;;;;;;;5068124;28;20039;-56
2021/12/12 10:42:15;;;;;;;11.68;7.25;;;;;;;;;;5067377;28;20025;-55
2021/12/12 10:44:54;;;;;;;12.70;8.05;;;;;;;;;;5067406;28;20055;-56
2021/12/12 10:47:36;;;;;;;13.13;8.40;;;;;;;;;;5067670;28;20369;-56
2021/12/12 10:50:10;;;;;;;13.88;8.85;;;;;;;;;;5066817;28;20059;-55
2021/12/12 10:52:50;;;;;;;13.23;8.43;;;;;;;;;;5067986;28;20016;-55
2021/12/12 10:55:30;;;;;;;11.77;7.53;;;;;;;;;;5067135;28;20078;-56
2021/12/12 10:58:17;;;;;;;12.48;8.43;;;;;;;;;;5056679;28;20507;-55
2021/12/12 11:00:45;;;;;;;11.40;7.28;;;;;;;;;;5063705;28;20078;-56
2021/12/12 11:03:17;;;;;;;11.02;7.22;;;;;;;;;;5063993;28;20021;-57
2021/12/12 11:05:49;;;;;;;10.90;7.35;;;;;;;;;;5066307;28;20024;-59
2021/12/12 11:08:18;;;;;;;10.57;7.10;;;;;;;;;;5067079;28;20507;-52
2021/12/12 11:10:47;;;;;;;9.93;6.53;;;;;;;;;;5066987;28;20040;-58
2021/12/12 11:13:42;;;;;;;10.77;7.43;;;;;;;;;;5073690;28;20024;-59
2021/12/12 11:16:17;;;;;;;11.88;8.07;;;;;;;;;;5011715;28;20420;-58
2021/12/12 11:18:46;;;;;;;10.65;7.25;;;;;;;;;;5066972;28;20588;-56
2021/12/12 11:21:24;;;;;;;12.02;8.02;;;;;;;;;;5065457;28;20081;-56
2021/12/12 11:23:50;;;;;;;13.57;9.02;;;;;;;;;;5066169;28;20499;-56
2021/12/12 11:26:20;;;;;;;12.85;7.90;;;;;;;;;;5047720;28;20561;-56
2021/12/12 11:28:49;;;;;;;14.23;9.00;;;;;;;;;;5064061;28;20060;-56
2021/12/12 11:31:21;;;;;;;15.80;9.93;;;;;;;;;;5064432;28;20029;-56
2021/12/12 11:33:50;;;;;;;14.07;8.77;;;;;;;;;;5066400;28;20139;-56
2021/12/12 11:36:20;;;;;;;12.93;8.48;;;;;;;;;;5066523;28;20051;-56
2021/12/12 11:38:51;;;;;;;14.80;9.00;;;;;;;;;;5066402;28;20128;-56
2021/12/12 11:41:30;;;;;;;12.90;9.23;;;;;;;;;;5066342;28;20090;-56
2021/12/12 11:44:14;;;;;;;14.10;9.30;;;;;;;;;;5066635;28;20021;-56
2021/12/12 11:46:43;;;;;;;14.20;8.73;;;;;;;;;;5065904;28;20028;-59
2021/12/12 11:49:13;;;;;;;12.20;7.97;;;;;;;;;;5064743;28;20023;-59
2021/12/12 11:51:43;;;;;;;12.75;8.15;;;;;;;;;;5064660;28;20036;-58
2021/12/12 11:54:09;;;;;;;12.48;8.55;;;;;;;;;;5064100;28;20028;-58
2021/12/12 11:56:48;;;;;;;12.35;7.80;;;;;;;;;;5064067;28;20039;-59
2021/12/12 11:59:22;;;;;;;13.75;8.95;;;;;;;;;;5083998;28;20024;-57
2021/12/12 12:01:51;;;;;;;14.50;9.02;;;;;;;;;;5070159;28;20491;-57
2021/12/12 12:04:17;;;;;;;13.13;8.43;;;;;;;;;;5076560;28;20095;-56
2021/12/12 12:07:03;;;;;;;12.63;8.15;;;;;;;;;;5068768;28;20027;-56
2021/12/12 12:09:47;;;;;;;12.13;8.02;;;;;;;;;;5065270;28;20028;-57
2021/12/12 12:12:13;;;;;;;;;;;;;;;;;;5062989;28;20029;-57
2021/12/12 12:14:57;;;;;;;13.30;8.38;;;;;;;;;;5063358;28;20030;-57
2021/12/12 12:17:29;;;;;;;12.10;7.07;;;;;;;;;;5064877;28;20056;-56
2021/12/12 12:20:04;;;;;;;12.10;7.90;;;;;;;;;;5065145;28;20036;-57
2021/12/12 12:22:53;;;;;;;12.88;8.07;;;;;;;;;;5064701;28;20029;-56
2021/12/12 12:28:25;;;;;;;10.95;7.07;;;;;;;;;;5052060;28;20082;-57
2021/12/12 12:31:12;;;;;;;13.80;8.18;;;;;;;;;;5064135;28;20036;-57
2021/12/12 12:33:56;;;;;;;11.10;6.97;;;;;;;;;;5056238;28;20060;-57
2021/12/12 12:36:41;;;;;;;11.32;7.07;;;;;;;;;;5064528;28;20056;-57
2021/12/12 12:39:07;;;;;;;;;;;;;;;;;;5065267;28;20037;-57
2021/12/12 12:41:52;;;;;;;11.43;7.07;;;;;;;;;;5048367;28;19935;-57
2021/12/12 12:44:30;;;;;;;10.52;6.85;;;;;;;;;;5065876;28;20035;-57
2021/12/12 12:47:15;;;;;;;11.93;7.65;;;;;;;;;;5065229;28;20082;-57
2021/12/12 12:50:07;;;;;;;12.55;7.68;;;;;;;;;;5063644;28;20032;-57
2021/12/12 12:52:50;;;;;;;15.13;8.75;;;;;;;;;;5038786;28;20119;-57
2021/12/12 12:55:35;;;;;;;12.25;7.63;;;;;;;;;;5064761;28;20052;-57
2021/12/12 12:58:11;;;;;;;12.57;8.05;;;;;;;;;;5062849;28;20028;-58
2021/12/12 13:00:38;;;;;;;13.27;8.18;;;;;;;;;;5068598;28;20041;-58
2021/12/12 13:03:11;;;;;;;10.52;7.32;;;;;;;;;;5067723;28;20029;-58
2021/12/12 13:05:58;;;;;;;12.85;8.15;;;;;;;;;;5068192;28;20469;-59
2021/12/12 13:08:30;;;;;;;13.30;8.38;;;;;;;;;;5071325;28;20028;-56
2021/12/12 13:10:59;;;;;;;11.73;7.50;;;;;;;;;;5068538;28;20029;-57
2021/12/12 13:14:01;;;;;;;12.85;8.35;;;;;;;;;;5068749;28;20037;-56
2021/12/12 13:16:53;;;;;;;13.25;8.35;;;;;;;;;;4987096;28;20512;-57
2021/12/12 13:19:40;;;;;;;13.85;8.82;;;;;;;;;;5066339;28;20036;-57
2021/12/12 13:22:15;;;;;;;15.40;9.48;;;;;;;;;;5037395;28;20044;-57
2021/12/12 13:24:57;;;;;;;14.45;9.15;;;;;;;;;;5067301;28;20036;-57
2021/12/12 13:28:16;;;;;;;13.85;8.65;;;;;;;;;;5067285;28;20056;-57
2021/12/12 13:30:47;;;;;;;10.20;6.95;;;;;;;;;;5067189;28;20086;-57
2021/12/12 13:33:19;;;;;;;13.60;7.82;;;;;;;;;;5065122;28;20035;-57
2021/12/12 13:36:00;;;;;;;12.13;7.80;;;;;;;;;;5071125;28;20020;-57
2021/12/12 13:38:33;;;;;;;11.50;7.45;;;;;;;;;;5047166;28;20565;-57
2021/12/12 13:40:59;;;;;;;9.75;7.03;;;;;;;;;;5046928;28;20021;-57
2021/12/12 13:43:34;;;;;;;10.85;7.07;;;;;;;;;;5048448;28;20114;-57
2021/12/12 13:46:05;;;;;;;10.13;6.78;;;;;;;;;;5067807;28;20051;-57
2021/12/12 13:48:51;;;;;;;10.23;6.72;;;;;;;;;;5067241;28;20032;-57
2021/12/12 13:51:38;;;;;;;9.23;6.15;;;;;;;;;;5067563;28;20035;-57
2021/12/12 13:54:11;;;;;;;10.63;7.38;;;;;;;;;;5069192;28;20035;-57
2021/12/12 13:56:56;;;;;;;10.70;7.20;;;;;;;;;;5048653;28;20051;-57
2021/12/12 13:59:28;;;;;;;10.40;6.45;;;;;;;;;;5048382;28;20029;-57
2021/12/12 14:01:54;;;;;;;13.40;8.43;;;;;;;;;;5048263;28;20036;-57
2021/12/12 14:04:20;;;;;;;14.75;8.57;;;;;;;;;;5060215;28;20059;-57
2021/12/12 14:06:46;;;;;;;19.27;9.30;;;;;;;;;;5068972;28;20021;-57
2021/12/12 14:09:14;;;;;;;17.42;8.73;;;;;;;;;;5066949;28;20025;-56
2021/12/12 14:11:43;;;;;;;17.35;8.55;;;;;;;;;;5067350;28;20039;-57
2021/12/12 14:14:12;;;;;;;15.00;8.40;;;;;;;;;;5066413;28;21150;-57
2021/12/12 14:16:43;;;;;;;15.70;8.48;;;;;;;;;;5065399;28;20115;-57
2021/12/12 14:19:14;;;;;;;13.02;7.47;;;;;;;;;;5066654;28;20097;-57
2021/12/12 14:21:42;;;;;;;12.18;7.38;;;;;;;;;;5065335;28;20137;-57
2021/12/12 14:24:09;;;;;;;12.23;7.43;;;;;;;;;;5065758;28;20511;-57
2021/12/12 14:26:37;;;;;;;10.98;6.93;;;;;;;;;;5066213;28;20029;-57
2021/12/12 14:29:07;;;;;;;13.98;8.23;;;;;;;;;;5066512;28;20090;-57
2021/12/12 14:31:37;;;;;;;11.75;7.45;;;;;;;;;;5066327;28;20028;-58
2021/12/12 14:34:11;;;;;;;11.90;7.78;;;;;;;;;;5064972;28;20320;-57
2021/12/12 14:36:41;;;;;;;11.50;8.23;;;;;;;;;;5064145;28;20035;-57
2021/12/12 14:39:08;;;;;;;10.13;6.70;;;;;;;;;;5065767;28;20082;-58
2021/12/12 14:41:39;;;;;;;9.10;6.60;;;;;;;;;;5066016;28;20050;-57
2021/12/12 14:44:07;;;;;;;9.85;7.50;;;;;;;;;;5069962;28;20024;-58
2021/12/12 14:46:44;;;;;;;10.43;7.32;;;;;;;;;;5076272;28;20031;-58
2021/12/12 14:49:13;;;;;;;12.88;8.50;;;;;;;;;;5080238;28;20024;-57
2021/12/12 14:51:51;;;;;;;13.90;9.05;;;;;;;;;;5066343;28;20031;-57
2021/12/12 14:54:17;;;;;;;16.70;11.48;;;;;;;;;;5065938;28;20031;-57
2021/12/12 14:56:46;;;;;;;18.40;13.00;;;;;;;;;;5072258;28;20028;-57
2021/12/12 14:59:20;;;;;;;17.00;11.43;;;;;;;;;;5068564;28;20032;-57
2021/12/12 15:01:48;;;;;;;;;;;;;;;;;;5065619;28;20032;-58
2021/12/12 15:04:19;;;;;;;15.75;11.05;;;;;;;;;;5048130;28;20359;-58
2021/12/12 15:06:47;;;;;;;13.52;10.52;;;;;;;;;;5065066;28;20027;-58
2021/12/12 15:09:24;;;;;;;14.65;9.75;;;;;;;;;;5062035;28;20024;-58
2021/12/12 15:11:56;;;;;;;11.93;9.35;;;;;;;;;;5062977;28;20060;-57
2021/12/12 15:14:24;;;;;;;13.50;9.75;;;;;;;;;;5068242;28;20581;-57
2021/12/12 15:16:52;;;;;;;14.15;10.32;;;;;;;;;;5046370;28;20119;-57
2021/12/12 15:19:31;;;;;;;14.73;10.77;;;;;;;;;;5046777;28;20131;-57